METAR Data
IDs: Format: Raw Decoded Include TAF

Data at: 1212 UTC 24 May 2022

KBFI 241153Z AUTO 00000KT 10SM OVC025 12/08 A3015 RMK AO2 SLP207 T01170083 10150 20111 57003
KBFI 241053Z AUTO 00000KT 10SM FEW021 OVC025 12/08 A3015 RMK AO2 SLP207 T01170083
KBFI 241017Z 05003KT 10SM BKN020 12/08 A3016 RMK AO2 T01170078
KBFI 240953Z 07004KT 10SM SCT031 12/08 A3015 RMK AO2 SLP211 T01170078
KBFI 240853Z 04005KT 10SM SCT022 OVC060 12/08 A3016 RMK AO2 SLP211 T01220083 58001
KBFI 240753Z VRB04KT 10SM OVC049 13/08 A3016 RMK AO2 SLP212 T01330083 401940117
KBFI 240653Z 06005KT 10SM OVC044 14/07 A3016 RMK AO2 SLP212 T01390072
KBFI 240553Z 06003KT 10SM OVC041 15/08 A3016 RMK AO2 SLP212 T01500078 10183 20150 50004
KBFI 240453Z VRB04KT 10SM OVC041 15/08 A3016 RMK AO2 SLP213 T01500083
KBFI 240353Z VRB04KT 10SM BKN045 OVC075 16/08 A3016 RMK AO2 SLP211 T01610083
KBFI 240253Z 00000KT 10SM BKN042 BKN070 17/09 A3015 RMK AO2 SLP208 T01670089 55004
KBFI 240153Z 32005KT 10SM FEW049 BKN075 BKN100 17/08 A3015 RMK AO2 SLP208 T01720078
KBFI 240053Z 32005KT 10SM BKN060 BKN085 17/08 A3015 RMK AO2 SLP211 T01720078
KBFI 232353Z 32007KT 280V360 10SM BKN060 18/08 A3016 RMK AO2 SLP212 T01830078 10194 20139 58009
KBFI 232253Z 28006KT 10SM SCT048 BKN065 18/08 A3017 RMK AO2 SLP216 T01780083
KBFI 232153Z 00000KT 10SM SCT050 BKN060 18/08 A3018 RMK AO2 SLP219 T01830083
KBFI 232053Z 10SM SCT030 BKN070 17/09 A3019 RMK AO2 SLP221 T01670089 58007
KBFI 231953Z 18003KT 10SM BKN070 16/09 A3020 RMK AO2 SLP227 T01560094
KBFI 231853Z 21005KT 10SM BKN075 OVC085 15/09 A3021 RMK AO2 SLP228 T01500094
KBFI 231753Z 21005KT 10SM BKN030 BKN080 14/09 A3021 RMK AO2 SLP228 T01390089 10139 20117 50003
KBFI 231653Z 23005KT 10SM BKN020 OVC075 13/09 A3021 RMK AO2 SLP230 T01330094
KBFI 231553Z AUTO 22005KT 10SM OVC080 13/09 A3021 RMK AO2 SLP228 T01280094
KBFI 231453Z 15003KT 10SM OVC085 13/09 A3020 RMK AO2 SLP225 T01280094 51005
KBFI 231353Z 24003KT 10SM OVC100 12/09 A3019 RMK AO2 SLP224 T01170089
KBFI 231253Z 27005KT 10SM OVC100 12/09 A3019 RMK AO2 SLP224 T01170089